createdAt,value
2023-03-23T15:59:28.615Z,9.07
2023-03-23T16:02:30.792Z,4.28
2023-03-23T16:05:33.364Z,5.70
2023-03-23T16:08:35.246Z,3.67
2023-03-23T16:11:38.796Z,4.05
2023-03-23T16:14:40.999Z,3.55
2023-03-23T16:17:43.250Z,5.07
2023-03-23T16:20:45.164Z,4.15
2023-03-23T16:23:48.042Z,3.88
2023-03-23T16:26:54.209Z,3.72
2023-03-23T16:30:04.011Z,4.63
2023-03-23T16:33:08.149Z,8.13
2023-03-23T16:36:12.232Z,5.45
2023-03-23T16:39:15.252Z,4.40
2023-03-23T16:42:19.399Z,3.63
2023-03-23T16:45:22.218Z,5.68
2023-03-23T16:48:25.370Z,12.23
2023-03-23T16:51:30.723Z,6.47
2023-03-23T16:54:33.220Z,10.75
2023-03-23T16:57:39.663Z,4.72
2023-03-23T17:00:44.243Z,7.60
2023-03-23T17:03:46.500Z,7.93
2023-03-23T17:06:48.921Z,7.70
2023-03-23T17:09:51.306Z,10.93
2023-03-23T17:12:58.366Z,5.32
2023-03-23T17:16:00.724Z,14.48
2023-03-23T17:19:03.128Z,10.35
2023-03-23T17:22:05.479Z,37.80
2023-03-23T17:25:09.906Z,11.00
2023-03-23T17:28:13.751Z,7.85
2023-03-23T17:31:16.010Z,5.15
2023-03-23T17:34:20.033Z,7.68
2023-03-23T17:37:23.561Z,8.98
2023-03-23T17:40:27.309Z,14.07
2023-03-23T17:43:30.808Z,10.65
2023-03-23T17:46:33.546Z,13.88
2023-03-23T17:49:36.725Z,20.80
2023-03-23T17:52:40.582Z,20.60
2023-03-23T17:55:44.607Z,22.83
2023-03-23T17:58:48.979Z,16.38
2023-03-23T18:01:54.080Z,16.50
2023-03-23T18:04:58.552Z,15.95
2023-03-23T18:08:01.607Z,16.38
2023-03-23T18:11:05.941Z,20.35
2023-03-23T18:14:10.850Z,14.27
2023-03-23T18:17:13.285Z,11.73
2023-03-23T18:20:17.610Z,15.90
2023-03-23T18:23:20.992Z,15.27
2023-03-23T18:26:23.846Z,11.73
2023-03-23T18:29:27.405Z,15.48
2023-03-23T18:32:30.166Z,13.27
2023-03-23T18:35:33.577Z,12.05
2023-03-23T18:38:39.183Z,15.48
2023-03-23T18:41:42.448Z,10.30
2023-03-23T18:44:47.743Z,12.82
2023-03-23T18:47:53.191Z,6.78
2023-03-23T18:51:08.319Z,9.32
2023-03-23T18:54:11.528Z,8.13
2023-03-23T18:57:17.063Z,34.30
2023-03-23T19:00:21.692Z,46.08
2023-03-23T19:03:24.743Z,26.95
2023-03-23T19:06:29.546Z,39.95
2023-03-23T19:09:36.411Z,13.07
2023-03-23T19:12:41.558Z,8.20
2023-03-23T19:15:46.683Z,12.10
2023-03-23T19:18:54.920Z,11.82
2023-03-23T19:21:58.207Z,25.15
2023-03-23T19:25:02.291Z,29.98
2023-03-23T19:31:13.966Z,24.75
2023-03-23T19:34:18.570Z,19.40
2023-03-23T19:37:23.206Z,15.27
2023-03-23T19:40:39.576Z,9.50
2023-03-23T19:43:43.436Z,13.38
2023-03-23T19:46:48.470Z,12.15
2023-03-23T19:49:52.065Z,17.00
2023-03-23T19:52:57.863Z,14.40
2023-03-23T19:56:04.813Z,19.33
2023-03-23T19:59:09.283Z,11.18
2023-03-23T20:02:15.242Z,12.27
2023-03-23T20:05:18.706Z,11.27
2023-03-23T20:08:22.596Z,7.20
2023-03-23T20:11:25.745Z,8.65
2023-03-23T20:14:29.570Z,30.98
2023-03-23T20:17:34.703Z,32.30
2023-03-23T20:20:39.088Z,35.60
2023-03-23T20:23:44.447Z,35.42
2023-03-23T20:26:51.241Z,15.75
2023-03-23T20:29:56.244Z,10.90
2023-03-23T20:33:02.023Z,22.63
2023-03-23T20:36:05.413Z,22.35
2023-03-23T20:39:10.065Z,7.88
2023-03-23T20:42:13.171Z,8.95
2023-03-23T20:45:17.166Z,7.38
2023-03-23T20:48:21.770Z,12.63
2023-03-23T20:51:24.501Z,14.80
2023-03-23T20:54:27.649Z,11.00
2023-03-23T20:57:32.370Z,8.60
2023-03-23T21:00:35.250Z,8.90
2023-03-23T21:03:42.218Z,5.53
2023-03-23T21:06:47.424Z,13.20
2023-03-23T21:09:51.738Z,9.70
2023-03-23T21:12:54.186Z,9.68
2023-03-23T21:15:56.887Z,10.05
2023-03-23T21:19:00.835Z,13.00
2023-03-23T21:22:04.493Z,5.72
2023-03-23T21:25:06.900Z,12.38
2023-03-23T21:28:09.007Z,5.93
2023-03-23T21:31:11.576Z,7.60
2023-03-23T21:34:15.280Z,8.05
2023-03-23T21:37:18.717Z,6.15
2023-03-23T21:40:21.170Z,8.10
2023-03-23T21:43:23.889Z,11.88
2023-03-23T21:46:27.771Z,9.98
2023-03-23T21:49:31.320Z,10.90
2023-03-23T21:52:33.708Z,6.03
2023-03-23T21:55:36.101Z,7.75
2023-03-23T21:58:38.355Z,7.13
2023-03-23T22:01:40.654Z,7.85
2023-03-23T22:04:45.224Z,8.45
2023-03-23T22:07:48.798Z,6.18
2023-03-23T22:11:00.905Z,11.52
2023-03-23T22:14:05.172Z,7.68
2023-03-23T22:17:07.330Z,8.70
2023-03-23T22:20:13.636Z,6.85
2023-03-23T22:23:15.606Z,5.63
2023-03-23T22:26:17.657Z,6.72
2023-03-23T22:29:20.520Z,8.70
2023-03-23T22:32:23.124Z,10.05
2023-03-23T22:35:26.784Z,8.13
2023-03-23T22:38:28.704Z,7.05
2023-03-23T22:41:33.687Z,6.95
2023-03-23T22:44:35.568Z,7.45
2023-03-23T22:47:38.176Z,8.48
2023-03-23T22:50:41.426Z,7.85
2023-03-23T22:53:43.634Z,6.13
2023-03-23T22:56:45.673Z,9.77
2023-03-23T22:59:48.374Z,9.32
2023-03-23T23:02:50.513Z,7.80
2023-03-23T23:05:55.937Z,10.65
2023-03-23T23:08:57.812Z,12.73
2023-03-23T23:11:59.896Z,9.50
2023-03-23T23:15:02.968Z,9.43
2023-03-23T23:18:05.759Z,9.43
2023-03-23T23:21:14.106Z,11.27
2023-03-23T23:24:16.154Z,8.98
2023-03-23T23:27:18.082Z,5.55
2023-03-23T23:30:20.129Z,7.07
2023-03-23T23:33:22.838Z,6.55
2023-03-23T23:36:27.509Z,5.25
2023-03-23T23:39:29.367Z,6.00
2023-03-23T23:42:31.612Z,11.02
2023-03-23T23:45:33.696Z,5.75
2023-03-23T23:48:35.473Z,9.30
2023-03-23T23:51:39.434Z,5.70
2023-03-23T23:54:41.910Z,6.55
2023-03-23T23:57:44.421Z,6.35
